KRSW/RSW METAR and TAF weather

Enter ICAO airport designator
Station Type Date Time Source
KRSW METAR 2022/01/23 10:53 UTC NOAA

KRSW 231053Z 34007KT 6SM BR OVC005 11/09 A3010 RMK AO2 SLP190 T01060094


Station Type Date Time Source
KRSW Decoded METAR 2022/01/23 10:53 UTC NOAA

FORT MYERS SW FL INTERNATIONAL AIRPORT , FL, United States (KRSW) 26-32N 081-46W 9M
Jan 23, 2022 - 05:53 AM EST / 2022.01.23 1053 UTC
Wind: from the NNW (340 degrees) at 8 MPH (7 KT):0
Visibility: 6 mile(s):0
Sky conditions: overcast
Weather: mist
Temperature: 51.1 F (10.6 C)
Dew Point: 48.9 F (9.4 C)
Relative Humidity: 92%
Pressure (altimeter): 30.1 in. Hg (1019 hPa)
ob: KRSW 231053Z 34007KT 6SM BR OVC005 11/09 A3010 RMK AO2 SLP190 T01060094
cycle: 11

Station Type Date Time Source
KRSW TAF 2022/01/23 06:36 UTC NOAA

TAF KRSW 230534Z 2306/2406 02006KT P6SM SCT009 OVC020
TEMPO 2308/2312 BKN008 OVC020
FM231200 01007KT P6SM SCT007 BKN020
FM231400 35010KT P6SM FEW010 SCT025
FM231900 30011KT P6SM SKC
FM240200 34004KT P6SM SKC

Example: see airport list